Time;durP1;ratioP1;P1;durP2;ratioP2;P2;SDS_P1;SDS_P2;PMS_P1;PMS_P2;Temp;Humidity;BMP_temperature;BMP_pressure;BME280_temperature;BME280_humidity;BME280_pressure;Samples;Min_cycle;Max_cycle;Signal;HPM_P1;HPM_P2
2024/01/29 00:00:30;;;;;;;18.10;5.97;;;;;;;;;;5001403;28;20292;-46
2024/01/29 00:02:55;;;;;;;19.13;7.13;;;;;;;;;;4999875;28;20120;-48
2024/01/29 00:05:20;;;;;;;18.48;6.43;;;;;;;;;;5017475;28;20774;-47
2024/01/29 00:07:45;;;;;;;20.63;6.60;;;;;;;;;;5003860;28;20489;-52
2024/01/29 00:10:11;;;;;;;18.60;5.77;;;;;;;;;;4996718;28;20552;-47
2024/01/29 00:12:36;;;;;;;18.10;6.20;;;;;;;;;;5009781;28;20261;-49
2024/01/29 00:15:02;;;;;;;19.95;6.43;;;;;;;;;;5014755;28;20046;-46
2024/01/29 00:17:27;;;;;;;19.08;6.60;;;;;;;;;;4984541;28;20148;-48
2024/01/29 00:19:52;;;;;;;22.52;9.30;;;;;;;;;;5013456;28;20485;-47
2024/01/29 00:22:18;;;;;;;24.30;8.02;;;;;;;;;;5006723;28;20042;-46
2024/01/29 00:24:43;;;;;;;20.73;7.63;;;;;;;;;;5001575;28;20031;-47
2024/01/29 00:27:08;;;;;;;18.80;6.50;;;;;;;;;;4997632;28;20831;-47
2024/01/29 00:29:33;;;;;;;20.38;7.45;;;;;;;;;;5003481;28;20262;-47
2024/01/29 00:31:58;;;;;;;18.67;7.25;;;;;;;;;;4995563;28;20447;-47
2024/01/29 00:34:24;;;;;;;19.37;6.00;;;;;;;;;;5004358;28;20421;-53
2024/01/29 00:36:49;;;;;;;19.92;6.75;;;;;;;;;;5014190;28;20360;-51
2024/01/29 00:39:14;;;;;;;19.30;6.65;;;;;;;;;;5006037;28;20033;-51
2024/01/29 00:41:39;;;;;;;20.00;6.70;;;;;;;;;;4997191;28;20022;-48
2024/01/29 00:44:04;;;;;;;20.40;6.50;;;;;;;;;;4998534;28;20273;-51
2024/01/29 00:46:30;;;;;;;19.00;6.23;;;;;;;;;;5003322;28;20329;-47
2024/01/29 00:48:55;;;;;;;19.30;6.78;;;;;;;;;;4998406;28;20269;-48
2024/01/29 00:51:20;;;;;;;18.80;6.80;;;;;;;;;;5003889;28;20121;-47
2024/01/29 00:53:47;;;;;;;19.00;6.60;;;;;;;;;;4995185;28;20078;-47
2024/01/29 00:56:12;;;;;;;18.92;6.60;;;;;;;;;;4999054;28;20372;-48
2024/01/29 00:58:39;;;;;;;20.02;6.85;;;;;;;;;;5014607;28;20089;-47
2024/01/29 01:01:05;;;;;;;17.33;5.93;;;;;;;;;;5005859;28;20010;-51
2024/01/29 01:03:30;;;;;;;20.02;6.80;;;;;;;;;;4998102;28;20026;-49
2024/01/29 01:05:55;;;;;;;20.10;6.70;;;;;;;;;;4997315;28;20114;-51
2024/01/29 01:08:20;;;;;;;20.80;6.97;;;;;;;;;;5001538;28;20662;-47
2024/01/29 01:10:45;;;;;;;19.92;7.10;;;;;;;;;;4997038;28;20273;-48
2024/01/29 01:13:11;;;;;;;20.63;7.00;;;;;;;;;;5003926;28;20121;-47
2024/01/29 01:15:36;;;;;;;19.92;7.28;;;;;;;;;;5013995;28;20699;-46
2024/01/29 01:18:03;;;;;;;21.05;6.63;;;;;;;;;;5006511;28;20061;-49
2024/01/29 01:20:28;;;;;;;19.17;6.95;;;;;;;;;;4994665;28;20109;-47
2024/01/29 01:22:53;;;;;;;16.73;5.90;;;;;;;;;;5000990;28;20531;-47
2024/01/29 01:25:19;;;;;;;21.43;6.77;;;;;;;;;;4999623;28;20277;-47
2024/01/29 01:27:44;;;;;;;19.83;7.35;;;;;;;;;;4997225;28;20694;-51
2024/01/29 01:30:09;;;;;;;19.13;6.87;;;;;;;;;;5002397;28;20526;-46
2024/01/29 01:32:35;;;;;;;18.95;6.72;;;;;;;;;;4995208;28;20316;-47
2024/01/29 01:35:00;;;;;;;17.98;6.28;;;;;;;;;;5004560;28;20109;-47
2024/01/29 01:37:25;;;;;;;19.50;6.72;;;;;;;;;;4993376;28;20054;-46
2024/01/29 01:39:53;;;;;;;20.13;7.00;;;;;;;;;;5004171;28;20056;-50
2024/01/29 01:42:19;;;;;;;19.90;7.05;;;;;;;;;;4994801;28;20803;-50
2024/01/29 01:44:45;;;;;;;20.77;7.35;;;;;;;;;;4999656;28;20027;-47
2024/01/29 01:47:10;;;;;;;18.70;6.32;;;;;;;;;;4999807;28;20030;-49
2024/01/29 01:49:36;;;;;;;19.98;6.63;;;;;;;;;;4996924;28;20447;-48
2024/01/29 01:52:01;;;;;;;19.55;6.82;;;;;;;;;;5002320;28;20018;-48
2024/01/29 01:54:26;;;;;;;18.00;6.43;;;;;;;;;;4994480;28;20468;-47
2024/01/29 01:56:52;;;;;;;20.90;6.82;;;;;;;;;;5004989;28;20037;-53
2024/01/29 01:59:18;;;;;;;18.90;6.50;;;;;;;;;;4993443;28;20076;-49
2024/01/29 02:01:44;;;;;;;19.75;6.68;;;;;;;;;;4998956;28;20038;-49
2024/01/29 02:04:10;;;;;;;21.55;8.18;;;;;;;;;;5005987;28;20018;-49
2024/01/29 02:06:35;;;;;;;20.00;6.97;;;;;;;;;;5003904;28;20459;-47
2024/01/29 02:09:00;;;;;;;19.58;6.63;;;;;;;;;;5005211;28;20269;-46
2024/01/29 02:11:25;;;;;;;18.95;6.10;;;;;;;;;;5009319;28;20018;-47
2024/01/29 02:13:50;;;;;;;18.75;6.57;;;;;;;;;;5004393;28;20462;-47
2024/01/29 02:16:16;;;;;;;18.93;6.47;;;;;;;;;;5011562;28;20414;-50
2024/01/29 02:18:41;;;;;;;20.77;7.03;;;;;;;;;;5003101;28;20319;-52
2024/01/29 02:21:06;;;;;;;19.35;6.68;;;;;;;;;;4992787;28;20337;-48
2024/01/29 02:23:31;;;;;;;18.75;7.35;;;;;;;;;;4999320;28;20080;-47
2024/01/29 02:25:56;;;;;;;19.43;6.90;;;;;;;;;;5008944;28;20030;-49
2024/01/29 02:28:23;;;;;;;19.97;7.00;;;;;;;;;;5005810;28;20281;-50
2024/01/29 02:30:49;;;;;;;21.23;6.82;;;;;;;;;;5002018;28;20284;-48
2024/01/29 02:33:14;;;;;;;18.80;6.47;;;;;;;;;;4995197;28;20413;-50
2024/01/29 02:35:39;;;;;;;19.25;6.82;;;;;;;;;;5003611;28;20014;-46
2024/01/29 02:38:04;;;;;;;18.70;6.20;;;;;;;;;;4992919;28;20014;-46
2024/01/29 02:40:30;;;;;;;18.45;6.43;;;;;;;;;;5005582;28;20029;-50
2024/01/29 02:42:55;;;;;;;19.30;7.17;;;;;;;;;;4993300;28;20423;-46
2024/01/29 02:45:20;;;;;;;19.20;6.45;;;;;;;;;;4999494;28;20277;-46
2024/01/29 02:47:45;;;;;;;18.40;6.60;;;;;;;;;;4998298;28;20022;-48
2024/01/29 02:50:10;;;;;;;19.13;6.43;;;;;;;;;;4996426;28;20292;-46
2024/01/29 02:52:36;;;;;;;20.83;6.85;;;;;;;;;;5003141;28;20785;-47
2024/01/29 02:55:01;;;;;;;18.90;6.68;;;;;;;;;;5003533;28;20061;-46
2024/01/29 02:57:26;;;;;;;20.93;7.10;;;;;;;;;;4992921;28;20552;-46
2024/01/29 02:59:52;;;;;;;21.27;7.27;;;;;;;;;;5004022;28;20261;-45
2024/01/29 03:02:17;;;;;;;20.58;6.93;;;;;;;;;;4991557;28;20275;-48
2024/01/29 03:04:42;;;;;;;18.80;6.65;;;;;;;;;;5001749;28;20117;-45
2024/01/29 03:07:07;;;;;;;19.83;6.55;;;;;;;;;;4995101;28;20028;-46
2024/01/29 03:09:32;;;;;;;18.27;6.23;;;;;;;;;;4996031;28;20455;-45
2024/01/29 03:11:58;;;;;;;20.17;7.10;;;;;;;;;;5000419;28;20257;-46
2024/01/29 03:14:23;;;;;;;18.60;6.73;;;;;;;;;;4995170;28;20131;-46
2024/01/29 03:16:51;;;;;;;19.73;6.93;;;;;;;;;;5000734;28;20754;-47
2024/01/29 03:19:16;;;;;;;19.50;6.88;;;;;;;;;;4992329;28;20709;-46
2024/01/29 03:21:41;;;;;;;18.97;6.80;;;;;;;;;;4999167;28;20125;-48
2024/01/29 03:24:06;;;;;;;19.17;7.13;;;;;;;;;;5011288;28;20295;-49
2024/01/29 03:26:32;;;;;;;19.70;6.72;;;;;;;;;;5003828;28;20308;-47
2024/01/29 03:28:57;;;;;;;19.07;6.43;;;;;;;;;;4999046;28;20093;-47
2024/01/29 03:31:22;;;;;;;19.13;6.50;;;;;;;;;;5001051;28;20274;-48
2024/01/29 03:33:47;;;;;;;18.67;6.33;;;;;;;;;;4993532;28;20273;-47
2024/01/29 03:36:12;;;;;;;20.33;6.80;;;;;;;;;;5002120;28;20295;-46
2024/01/29 03:38:37;;;;;;;24.00;7.55;;;;;;;;;;4991843;28;20269;-48
2024/01/29 03:41:03;;;;;;;18.13;6.67;;;;;;;;;;5002629;28;20381;-47
2024/01/29 03:43:29;;;;;;;18.25;6.68;;;;;;;;;;4993483;28;20432;-46
2024/01/29 03:45:54;;;;;;;19.27;6.53;;;;;;;;;;4997557;28;20093;-51
2024/01/29 03:48:19;;;;;;;17.77;6.47;;;;;;;;;;5012039;28;20763;-49
2024/01/29 03:50:45;;;;;;;19.67;6.65;;;;;;;;;;5006936;28;20292;-50
2024/01/29 03:53:10;;;;;;;19.90;6.90;;;;;;;;;;4999968;28;20055;-47
2024/01/29 03:55:35;;;;;;;20.08;7.15;;;;;;;;;;4990749;28;20749;-49
2024/01/29 03:58:00;;;;;;;19.50;6.57;;;;;;;;;;5002671;28;20049;-48
2024/01/29 04:00:26;;;;;;;20.65;6.80;;;;;;;;;;4991748;28;20050;-47
2024/01/29 04:02:51;;;;;;;20.58;6.68;;;;;;;;;;4996892;28;20045;-47
2024/01/29 04:05:17;;;;;;;20.10;6.55;;;;;;;;;;5008049;28;20100;-47
2024/01/29 04:07:42;;;;;;;20.35;7.32;;;;;;;;;;4999277;28;20030;-46
2024/01/29 04:10:07;;;;;;;21.20;7.00;;;;;;;;;;5000139;28;20028;-46
2024/01/29 04:12:33;;;;;;;20.50;6.75;;;;;;;;;;4994078;28;20553;-47
2024/01/29 04:14:58;;;;;;;19.90;6.80;;;;;;;;;;5001109;28;20025;-49
2024/01/29 04:17:23;;;;;;;18.97;7.00;;;;;;;;;;4991656;28;20026;-48
2024/01/29 04:19:48;;;;;;;20.23;7.00;;;;;;;;;;5002862;28;20867;-48
2024/01/29 04:22:13;;;;;;;19.38;6.90;;;;;;;;;;4990952;28;20261;-47
2024/01/29 04:24:39;;;;;;;19.60;6.67;;;;;;;;;;4998242;28;20022;-49
2024/01/29 04:27:04;;;;;;;19.38;6.50;;;;;;;;;;4995540;28;20319;-50
2024/01/29 04:29:29;;;;;;;20.53;6.57;;;;;;;;;;4995439;28;20026;-50
2024/01/29 04:31:54;;;;;;;19.70;6.72;;;;;;;;;;5001603;28;20295;-48
2024/01/29 04:34:19;;;;;;;21.23;7.03;;;;;;;;;;5007520;28;20022;-47
2024/01/29 04:36:45;;;;;;;19.40;6.53;;;;;;;;;;5001642;28;20018;-48
2024/01/29 04:39:10;;;;;;;18.98;6.78;;;;;;;;;;4991106;28;20293;-49
2024/01/29 04:41:35;;;;;;;20.88;6.90;;;;;;;;;;5006961;28;20040;-51
2024/01/29 04:44:01;;;;;;;17.87;6.13;;;;;;;;;;4995152;28;20470;-47
2024/01/29 04:46:26;;;;;;;19.87;6.73;;;;;;;;;;5000236;28;20308;-48
2024/01/29 04:48:51;;;;;;;19.40;7.43;;;;;;;;;;5000483;28;20746;-47
2024/01/29 04:51:16;;;;;;;22.40;7.07;;;;;;;;;;4997743;28;20304;-47
2024/01/29 04:53:41;;;;;;;19.58;6.60;;;;;;;;;;5002789;28;20360;-46
2024/01/29 04:56:07;;;;;;;19.73;6.87;;;;;;;;;;4990042;28;20312;-47
2024/01/29 04:58:32;;;;;;;18.65;6.72;;;;;;;;;;5001874;28;20276;-48
2024/01/29 05:00:58;;;;;;;21.45;8.20;;;;;;;;;;5013906;28;20068;-49
2024/01/29 05:03:23;;;;;;;21.73;7.40;;;;;;;;;;5004967;28;20026;-48
2024/01/29 05:05:48;;;;;;;25.30;10.37;;;;;;;;;;4996947;28;20034;-46
2024/01/29 05:08:14;;;;;;;19.17;7.10;;;;;;;;;;4998192;28;20276;-45
2024/01/29 05:10:39;;;;;;;21.08;7.07;;;;;;;;;;5001744;28;20015;-47
2024/01/29 05:13:04;;;;;;;20.98;7.50;;;;;;;;;;4997754;28;20019;-47
2024/01/29 05:15:29;;;;;;;21.25;7.10;;;;;;;;;;5002680;28;20026;-48
2024/01/29 05:17:55;;;;;;;19.77;6.93;;;;;;;;;;4994039;28;20030;-49
2024/01/29 05:20:20;;;;;;;19.53;7.27;;;;;;;;;;5000795;28;20376;-51
2024/01/29 05:22:45;;;;;;;20.90;7.43;;;;;;;;;;5013372;28;20260;-47
2024/01/29 05:25:10;;;;;;;20.13;7.03;;;;;;;;;;5005506;28;20388;-48
2024/01/29 05:27:35;;;;;;;21.42;7.50;;;;;;;;;;4997806;28;20289;-46
2024/01/29 05:30:00;;;;;;;19.97;7.77;;;;;;;;;;4997259;28;20435;-50
2024/01/29 05:32:26;;;;;;;20.77;7.63;;;;;;;;;;5002324;28;20325;-45
2024/01/29 05:34:51;;;;;;;19.80;7.03;;;;;;;;;;4995305;28;20273;-46
2024/01/29 05:37:16;;;;;;;18.65;6.40;;;;;;;;;;5003782;28;20269;-47
2024/01/29 05:39:42;;;;;;;18.10;6.47;;;;;;;;;;4993901;28;20049;-49
2024/01/29 05:42:07;;;;;;;20.08;6.93;;;;;;;;;;5005111;28;20367;-50
2024/01/29 05:44:32;;;;;;;21.88;7.40;;;;;;;;;;4993938;28;20035;-45
2024/01/29 05:46:57;;;;;;;20.20;7.72;;;;;;;;;;4999480;28;20165;-50
2024/01/29 05:49:22;;;;;;;21.80;7.60;;;;;;;;;;4999168;28;20038;-48
2024/01/29 05:51:48;;;;;;;20.52;7.07;;;;;;;;;;4996956;28;20276;-47
2024/01/29 05:54:13;;;;;;;20.42;7.20;;;;;;;;;;5000105;28;20062;-46
2024/01/29 05:56:42;;;;;;;20.48;6.70;;;;;;;;;;5007899;28;20041;-47
2024/01/29 05:59:08;;;;;;;20.65;7.25;;;;;;;;;;5004093;28;20014;-47
2024/01/29 06:01:33;;;;;;;20.73;6.65;;;;;;;;;;4993703;28;20038;-48
2024/01/29 06:03:58;;;;;;;20.00;7.32;;;;;;;;;;5004415;28;20101;-47
2024/01/29 06:06:23;;;;;;;19.40;6.40;;;;;;;;;;4997713;28;20022;-50
2024/01/29 06:08:49;;;;;;;19.35;6.72;;;;;;;;;;5000891;28;20800;-47
2024/01/29 06:11:14;;;;;;;19.20;6.57;;;;;;;;;;5000091;28;20010;-48
2024/01/29 06:13:39;;;;;;;18.83;6.60;;;;;;;;;;4996476;28;20117;-46
2024/01/29 06:16:04;;;;;;;21.98;6.93;;;;;;;;;;5001363;28;20030;-47
2024/01/29 06:18:30;;;;;;;20.05;6.53;;;;;;;;;;4993672;28;20026;-47
2024/01/29 06:20:55;;;;;;;18.90;6.73;;;;;;;;;;5002455;28;20493;-47
2024/01/29 06:23:20;;;;;;;20.30;7.40;;;;;;;;;;4991381;28;20328;-48
2024/01/29 06:25:45;;;;;;;19.90;6.75;;;;;;;;;;4998351;28;20121;-46
2024/01/29 06:28:11;;;;;;;20.97;7.30;;;;;;;;;;5009427;28;20020;-50
2024/01/29 06:30:36;;;;;;;18.23;6.32;;;;;;;;;;5004091;28;20778;-51
2024/01/29 06:33:01;;;;;;;21.30;7.43;;;;;;;;;;5001107;28;20029;-47
2024/01/29 06:35:26;;;;;;;20.93;7.10;;;;;;;;;;4995395;28;20062;-49
2024/01/29 06:37:51;;;;;;;19.43;6.70;;;;;;;;;;5001807;28;20828;-51
2024/01/29 06:40:16;;;;;;;19.67;7.00;;;;;;;;;;4992536;28;20348;-47
2024/01/29 06:42:42;;;;;;;19.83;6.57;;;;;;;;;;5004795;28;20674;-47
2024/01/29 06:45:07;;;;;;;20.43;7.37;;;;;;;;;;4992667;28;20026;-47
2024/01/29 06:47:32;;;;;;;19.63;6.60;;;;;;;;;;4997975;28;20354;-47
2024/01/29 06:49:58;;;;;;;19.67;6.60;;;;;;;;;;4997134;28;20018;-47
2024/01/29 06:52:24;;;;;;;18.63;6.32;;;;;;;;;;4996570;28;20426;-45
2024/01/29 06:54:49;;;;;;;19.67;6.68;;;;;;;;;;5003243;28;20053;-48
2024/01/29 06:57:14;;;;;;;20.50;6.93;;;;;;;;;;5008658;28;20022;-45
2024/01/29 06:59:39;;;;;;;20.07;6.70;;;;;;;;;;5002734;28;20261;-46
2024/01/29 07:02:05;;;;;;;20.00;7.20;;;;;;;;;;4992295;28;20316;-45
2024/01/29 07:04:31;;;;;;;18.60;6.22;;;;;;;;;;5002903;28;20260;-48
2024/01/29 07:06:56;;;;;;;23.92;6.75;;;;;;;;;;4992800;28;20034;-48
2024/01/29 07:09:21;;;;;;;20.60;6.87;;;;;;;;;;4998685;28;20019;-52
2024/01/29 07:11:46;;;;;;;20.73;6.73;;;;;;;;;;4999098;28;20747;-50
2024/01/29 07:14:11;;;;;;;20.05;6.53;;;;;;;;;;4996568;28;20270;-48
2024/01/29 07:16:37;;;;;;;21.17;6.17;;;;;;;;;;5003498;28;20036;-51
2024/01/29 07:19:02;;;;;;;21.50;6.75;;;;;;;;;;5009788;28;20277;-48
2024/01/29 07:21:27;;;;;;;19.83;6.15;;;;;;;;;;4995413;28;20026;-49
2024/01/29 07:23:52;;;;;;;17.88;5.93;;;;;;;;;;4992474;28;20073;-49
2024/01/29 07:26:18;;;;;;;19.50;6.37;;;;;;;;;;5002023;28;20088;-47
2024/01/29 07:28:43;;;;;;;20.55;6.65;;;;;;;;;;4995372;28;20340;-46
2024/01/29 07:31:08;;;;;;;20.15;6.95;;;;;;;;;;4996415;28;20426;-47
2024/01/29 07:33:33;;;;;;;18.83;6.72;;;;;;;;;;5000564;28;20462;-47
2024/01/29 07:35:59;;;;;;;20.23;6.23;;;;;;;;;;4995738;28;20487;-46
2024/01/29 07:38:24;;;;;;;18.55;6.70;;;;;;;;;;5001127;28;20268;-47
2024/01/29 07:40:49;;;;;;;21.17;6.60;;;;;;;;;;4993108;28;20025;-49
2024/01/29 07:43:14;;;;;;;18.90;6.53;;;;;;;;;;5004230;28;20787;-46
2024/01/29 07:45:39;;;;;;;19.53;6.83;;;;;;;;;;4992194;28;20281;-49
2024/01/29 07:48:05;;;;;;;19.63;7.00;;;;;;;;;;4999050;28;20275;-51
2024/01/29 07:50:31;;;;;;;19.50;6.40;;;;;;;;;;4997135;28;20685;-49
2024/01/29 07:52:56;;;;;;;19.40;6.75;;;;;;;;;;4995325;28;20057;-51
2024/01/29 07:55:23;;;;;;;21.13;6.97;;;;;;;;;;4999981;28;20014;-48
2024/01/29 07:57:48;;;;;;;21.02;7.40;;;;;;;;;;4993454;28;20026;-46
2024/01/29 08:00:13;;;;;;;20.37;6.90;;;;;;;;;;5000423;28;20355;-47
2024/01/29 08:02:38;;;;;;;19.30;6.25;;;;;;;;;;4991258;28;20277;-49
2024/01/29 08:05:04;;;;;;;19.90;6.78;;;;;;;;;;5003456;28;20026;-47
2024/01/29 08:07:29;;;;;;;18.92;6.95;;;;;;;;;;4997310;28;20053;-48
2024/01/29 08:09:54;;;;;;;21.40;6.97;;;;;;;;;;5003567;28;20034;-50
2024/01/29 08:12:20;;;;;;;18.77;6.80;;;;;;;;;;5000022;28;20053;-49
2024/01/29 08:14:45;;;;;;;19.52;6.78;;;;;;;;;;5005320;28;20648;-48
2024/01/29 08:17:10;;;;;;;19.40;6.88;;;;;;;;;;5002693;28;20035;-47
2024/01/29 08:19:35;;;;;;;20.00;6.90;;;;;;;;;;4996352;28;20023;-47
2024/01/29 08:22:01;;;;;;;18.63;6.60;;;;;;;;;;5005562;28;20261;-47
2024/01/29 08:24:26;;;;;;;19.58;6.88;;;;;;;;;;4994860;28;20027;-46
2024/01/29 08:26:55;;;;;;;21.48;8.07;;;;;;;;;;5005238;28;20494;-55
2024/01/29 08:29:20;;;;;;;19.35;7.15;;;;;;;;;;4979224;28;20053;-48
2024/01/29 08:31:45;;;;;;;21.65;7.72;;;;;;;;;;5001385;28;20057;-49
2024/01/29 08:34:10;;;;;;;20.25;7.30;;;;;;;;;;5002162;28;20053;-48
2024/01/29 08:36:36;;;;;;;20.93;7.70;;;;;;;;;;4998752;28;20472;-47
2024/01/29 08:39:01;;;;;;;20.88;8.00;;;;;;;;;;5011280;28;20271;-47
2024/01/29 08:41:26;;;;;;;20.88;8.25;;;;;;;;;;5011377;28;20048;-49
2024/01/29 08:43:51;;;;;;;20.43;7.43;;;;;;;;;;5001598;28;20041;-48
2024/01/29 08:46:17;;;;;;;20.58;7.82;;;;;;;;;;5014027;28;20395;-46
2024/01/29 08:48:42;;;;;;;22.90;8.50;;;;;;;;;;5006430;28;20052;-48
2024/01/29 08:51:08;;;;;;;22.25;7.93;;;;;;;;;;4997231;28;20274;-46
2024/01/29 08:53:33;;;;;;;21.27;8.55;;;;;;;;;;4999036;28;20077;-50
2024/01/29 08:55:58;;;;;;;22.07;8.17;;;;;;;;;;5002571;28;20058;-57
2024/01/29 08:58:23;;;;;;;20.98;7.78;;;;;;;;;;4997416;28;20277;-57
2024/01/29 09:00:52;;;;;;;21.90;8.30;;;;;;;;;;5003709;28;20023;-53
2024/01/29 09:03:17;;;;;;;22.73;8.00;;;;;;;;;;4994922;28;20053;-52
2024/01/29 09:05:43;;;;;;;21.35;7.72;;;;;;;;;;5001361;28;20034;-49
2024/01/29 09:08:08;;;;;;;20.67;8.65;;;;;;;;;;5012853;28;20445;-51
2024/01/29 09:10:33;;;;;;;21.43;8.27;;;;;;;;;;5005517;28;20034;-47
2024/01/29 09:12:58;;;;;;;21.35;8.75;;;;;;;;;;4997886;28;20273;-48
2024/01/29 09:15:23;;;;;;;21.23;8.17;;;;;;;;;;4995847;28;20037;-47
2024/01/29 09:17:49;;;;;;;23.20;8.03;;;;;;;;;;4998983;28;20032;-50
2024/01/29 09:20:14;;;;;;;21.05;7.82;;;;;;;;;;4994238;28;20033;-47
2024/01/29 09:22:39;;;;;;;20.88;7.40;;;;;;;;;;4996353;28;20104;-48
2024/01/29 09:25:06;;;;;;;21.23;7.57;;;;;;;;;;4998095;28;20136;-47
2024/01/29 09:27:32;;;;;;;21.17;7.38;;;;;;;;;;4998889;28;20301;-46
2024/01/29 09:29:57;;;;;;;21.88;7.40;;;;;;;;;;5000364;28;20042;-46
2024/01/29 09:32:23;;;;;;;22.17;7.50;;;;;;;;;;5004186;28;20488;-48
2024/01/29 09:34:48;;;;;;;20.33;7.30;;;;;;;;;;5002394;28;20030;-47
2024/01/29 09:37:13;;;;;;;20.43;7.73;;;;;;;;;;5009087;28;20279;-46
2024/01/29 09:39:38;;;;;;;21.05;7.88;;;;;;;;;;5002873;28;20724;-47
2024/01/29 09:42:04;;;;;;;20.63;8.05;;;;;;;;;;4991278;28;20030;-47
2024/01/29 09:44:37;;;;;;;21.10;7.88;;;;;;;;;;5001413;28;20398;-49
2024/01/29 09:47:04;;;;;;;20.65;7.93;;;;;;;;;;4992399;28;20034;-47
2024/01/29 09:49:29;;;;;;;21.15;8.18;;;;;;;;;;4996760;28;20022;-47
2024/01/29 09:51:55;;;;;;;22.63;8.43;;;;;;;;;;4997733;28;20481;-48
2024/01/29 09:54:20;;;;;;;22.15;9.18;;;;;;;;;;4993143;28;20449;-47
2024/01/29 09:56:45;;;;;;;22.05;8.35;;;;;;;;;;4999790;28;20085;-50
2024/01/29 09:59:11;;;;;;;21.77;8.60;;;;;;;;;;4999360;28;20105;-49
2024/01/29 10:01:36;;;;;;;21.73;8.90;;;;;;;;;;4999252;28;20478;-48
2024/01/29 10:04:02;;;;;;;21.77;9.35;;;;;;;;;;5005402;28;20277;-48
2024/01/29 10:06:27;;;;;;;20.90;8.70;;;;;;;;;;5001009;28;20076;-51
2024/01/29 10:08:53;;;;;;;23.80;8.63;;;;;;;;;;5003484;28;20026;-49
2024/01/29 10:11:18;;;;;;;21.17;8.65;;;;;;;;;;5008361;28;20478;-47
2024/01/29 10:13:45;;;;;;;22.67;9.27;;;;;;;;;;5003043;28;20117;-46
2024/01/29 10:16:10;;;;;;;21.90;8.73;;;;;;;;;;5000358;28;20038;-47
2024/01/29 10:18:36;;;;;;;21.13;8.23;;;;;;;;;;4995823;28;20014;-47
2024/01/29 10:21:03;;;;;;;21.15;8.68;;;;;;;;;;4996233;28;20280;-50
2024/01/29 10:23:28;;;;;;;21.02;8.15;;;;;;;;;;4997210;28;20090;-51
2024/01/29 10:25:57;;;;;;;22.75;8.05;;;;;;;;;;4994566;28;20033;-49
2024/01/29 10:28:23;;;;;;;21.13;8.10;;;;;;;;;;4999223;28;20022;-47
2024/01/29 10:30:49;;;;;;;21.35;8.23;;;;;;;;;;4992377;28;20028;-47
2024/01/29 10:33:14;;;;;;;22.58;8.77;;;;;;;;;;5001191;28;20030;-50
2024/01/29 10:35:39;;;;;;;21.17;8.55;;;;;;;;;;4990611;28;20428;-48
2024/01/29 10:38:05;;;;;;;21.02;8.63;;;;;;;;;;5000239;28;20030;-46
2024/01/29 10:40:31;;;;;;;21.00;8.20;;;;;;;;;;4995865;28;20486;-48
2024/01/29 10:42:57;;;;;;;21.20;8.70;;;;;;;;;;4994959;28;20025;-48
2024/01/29 10:45:23;;;;;;;20.77;8.40;;;;;;;;;;5002214;28;20093;-47
2024/01/29 10:47:49;;;;;;;22.27;9.00;;;;;;;;;;5003386;28;20152;-50
2024/01/29 10:50:19;;;;;;;20.88;7.65;;;;;;;;;;4993839;28;20104;-47
2024/01/29 10:52:45;;;;;;;21.35;7.35;;;;;;;;;;4996068;28;20193;-48
2024/01/29 10:55:10;;;;;;;22.02;7.97;;;;;;;;;;4998206;28;20472;-49
2024/01/29 10:57:37;;;;;;;21.08;7.82;;;;;;;;;;4999711;28;20037;-48
2024/01/29 11:00:03;;;;;;;21.52;8.18;;;;;;;;;;4997487;28;20045;-46
2024/01/29 11:02:29;;;;;;;19.88;7.80;;;;;;;;;;5001094;28;20462;-48
2024/01/29 11:04:54;;;;;;;20.17;7.05;;;;;;;;;;4998794;28;20313;-47
2024/01/29 11:07:21;;;;;;;21.07;7.13;;;;;;;;;;4997527;28;20085;-47
2024/01/29 11:10:04;;;;;;;21.23;8.18;;;;;;;;;;4993482;28;20274;-46
2024/01/29 11:12:30;;;;;;;18.70;7.10;;;;;;;;;;4999109;28;20029;-48
2024/01/29 11:14:56;;;;;;;21.00;7.53;;;;;;;;;;5006007;28;20492;-48
2024/01/29 11:17:21;;;;;;;21.25;8.23;;;;;;;;;;5000520;28;20026;-48
2024/01/29 11:19:50;;;;;;;19.90;7.57;;;;;;;;;;4988761;28;20018;-48
2024/01/29 11:22:15;;;;;;;20.85;8.13;;;;;;;;;;5000388;28;20026;-47
2024/01/29 11:24:41;;;;;;;22.10;8.50;;;;;;;;;;4990422;28;20084;-46
2024/01/29 11:27:07;;;;;;;20.92;7.65;;;;;;;;;;4996047;28;20045;-47
2024/01/29 11:29:37;;;;;;;21.50;8.85;;;;;;;;;;4995087;28;20026;-47
2024/01/29 11:32:04;;;;;;;22.55;8.05;;;;;;;;;;4993354;28;20030;-50
2024/01/29 11:34:29;;;;;;;20.55;8.15;;;;;;;;;;4997463;28;20069;-48
2024/01/29 11:36:54;;;;;;;20.70;7.88;;;;;;;;;;4990296;28;20038;-48
2024/01/29 11:39:22;;;;;;;21.27;8.20;;;;;;;;;;5003965;28;20022;-47
2024/01/29 11:41:48;;;;;;;20.40;7.93;;;;;;;;;;5009057;28;20260;-47
2024/01/29 11:44:14;;;;;;;21.42;8.43;;;;;;;;;;5000121;28;20048;-49
2024/01/29 11:46:42;;;;;;;21.88;8.18;;;;;;;;;;4989711;28;20088;-49
2024/01/29 11:49:07;;;;;;;22.75;8.90;;;;;;;;;;4995615;28;20026;-50
2024/01/29 11:51:34;;;;;;;22.27;8.53;;;;;;;;;;5006647;28;20428;-47
2024/01/29 11:53:59;;;;;;;21.67;8.45;;;;;;;;;;5004703;28;20369;-49
2024/01/29 11:56:24;;;;;;;22.77;8.45;;;;;;;;;;5002589;28;20102;-51
2024/01/29 11:59:00;;;;;;;21.17;8.40;;;;;;;;;;5010056;28;20022;-48
2024/01/29 12:01:25;;;;;;;21.27;8.63;;;;;;;;;;5002990;28;20102;-50
2024/01/29 12:03:50;;;;;;;22.17;8.30;;;;;;;;;;5003913;28;20101;-48
2024/01/29 12:06:16;;;;;;;21.50;8.90;;;;;;;;;;5006718;28;20300;-49
2024/01/29 12:08:45;;;;;;;22.13;9.18;;;;;;;;;;5002799;28;20277;-48
2024/01/29 12:11:13;;;;;;;22.45;8.88;;;;;;;;;;5004084;28;20010;-49
2024/01/29 12:13:38;;;;;;;21.42;8.15;;;;;;;;;;5007809;28;20096;-47
2024/01/29 12:16:03;;;;;;;21.87;8.47;;;;;;;;;;5001632;28;20559;-47
2024/01/29 12:18:29;;;;;;;20.88;8.70;;;;;;;;;;4994034;28;20331;-48
2024/01/29 12:20:54;;;;;;;20.60;8.50;;;;;;;;;;5001074;28;20085;-48
2024/01/29 12:23:23;;;;;;;21.70;8.27;;;;;;;;;;5012576;28;20382;-48
2024/01/29 12:25:51;;;;;;;20.95;8.30;;;;;;;;;;5004405;28;20057;-46
2024/01/29 12:28:17;;;;;;;20.67;8.20;;;;;;;;;;4994526;28;20022;-47
2024/01/29 12:30:42;;;;;;;21.73;8.40;;;;;;;;;;4998336;28;20038;-49
2024/01/29 12:33:16;;;;;;;21.35;7.88;;;;;;;;;;4999564;28;20054;-48
2024/01/29 12:35:42;;;;;;;21.58;8.48;;;;;;;;;;4996334;28;20057;-49
2024/01/29 12:38:07;;;;;;;22.15;8.55;;;;;;;;;;5001478;28;20033;-46
2024/01/29 12:40:33;;;;;;;21.77;8.30;;;;;;;;;;5007336;28;20026;-48
2024/01/29 12:43:00;;;;;;;22.42;8.93;;;;;;;;;;4999227;28;20030;-48
2024/01/29 12:45:25;;;;;;;20.60;8.65;;;;;;;;;;4998906;28;20025;-48
2024/01/29 12:47:50;;;;;;;22.40;9.10;;;;;;;;;;5009490;28;20308;-48
2024/01/29 12:50:17;;;;;;;21.48;8.45;;;;;;;;;;5002752;28;20022;-47
2024/01/29 12:52:42;;;;;;;23.48;9.52;;;;;;;;;;4992069;28;20131;-46
2024/01/29 12:55:08;;;;;;;22.67;9.60;;;;;;;;;;4997291;28;20042;-48
2024/01/29 12:57:33;;;;;;;21.83;8.63;;;;;;;;;;5002446;28;20029;-47
2024/01/29 12:59:58;;;;;;;22.27;9.70;;;;;;;;;;5003582;28;20462;-46
2024/01/29 13:02:23;;;;;;;21.63;9.37;;;;;;;;;;4998124;28;20697;-51
2024/01/29 13:04:49;;;;;;;22.57;9.40;;;;;;;;;;4999736;28;20037;-47
2024/01/29 13:07:14;;;;;;;22.07;9.93;;;;;;;;;;4997000;28;20525;-46
2024/01/29 13:09:40;;;;;;;21.67;8.40;;;;;;;;;;4995724;28;20054;-52
2024/01/29 13:12:06;;;;;;;22.42;8.50;;;;;;;;;;4994098;28;20268;-47
2024/01/29 13:14:31;;;;;;;22.35;9.10;;;;;;;;;;4998949;28;20032;-48
2024/01/29 13:16:56;;;;;;;22.20;8.90;;;;;;;;;;4991471;28;20030;-46
2024/01/29 13:19:21;;;;;;;21.50;8.00;;;;;;;;;;5003280;28;20461;-46
2024/01/29 13:21:47;;;;;;;20.77;8.40;;;;;;;;;;4991847;28;20026;-48
2024/01/29 13:24:12;;;;;;;21.30;8.52;;;;;;;;;;5002036;28;20401;-48
2024/01/29 13:26:40;;;;;;;22.40;8.82;;;;;;;;;;5010954;28;20076;-46
2024/01/29 13:29:07;;;;;;;21.10;8.65;;;;;;;;;;5011209;28;20462;-48
2024/01/29 13:31:32;;;;;;;21.13;8.48;;;;;;;;;;5011029;28;20100;-47
2024/01/29 13:33:58;;;;;;;21.00;8.10;;;;;;;;;;5011320;28;20113;-50
2024/01/29 13:36:23;;;;;;;22.13;8.75;;;;;;;;;;5010169;28;20484;-49
2024/01/29 13:38:48;;;;;;;21.03;8.53;;;;;;;;;;5011458;28;20022;-50
2024/01/29 13:41:13;;;;;;;21.60;8.13;;;;;;;;;;5011258;28;20307;-48
2024/01/29 13:43:39;;;;;;;19.90;8.13;;;;;;;;;;5010957;28;20018;-48
2024/01/29 13:46:04;;;;;;;21.17;8.10;;;;;;;;;;5010813;28;20695;-47
2024/01/29 13:48:30;;;;;;;21.77;8.85;;;;;;;;;;5011049;28;20018;-47
2024/01/29 13:50:55;;;;;;;20.73;8.52;;;;;;;;;;5009816;28;20024;-48
2024/01/29 13:53:20;;;;;;;22.63;8.90;;;;;;;;;;5012702;28;20437;-47
2024/01/29 13:55:46;;;;;;;20.83;8.15;;;;;;;;;;5013221;28;20137;-47
2024/01/29 13:58:12;;;;;;;21.42;8.40;;;;;;;;;;5013087;28;20101;-46
2024/01/29 14:00:37;;;;;;;20.75;8.45;;;;;;;;;;5013218;28;20068;-45
2024/01/29 14:03:04;;;;;;;21.27;8.30;;;;;;;;;;5012829;28;20033;-45
2024/01/29 14:05:30;;;;;;;20.90;8.63;;;;;;;;;;5012958;28;20342;-47
2024/01/29 14:07:55;;;;;;;23.33;8.82;;;;;;;;;;5012720;28;20025;-46
2024/01/29 14:10:20;;;;;;;22.00;9.37;;;;;;;;;;5012720;28;20025;-47
2024/01/29 14:12:45;;;;;;;22.60;9.13;;;;;;;;;;5002384;28;20037;-47
2024/01/29 14:15:12;;;;;;;21.47;8.97;;;;;;;;;;5003623;28;20273;-48
2024/01/29 14:17:37;;;;;;;22.00;9.13;;;;;;;;;;5004734;28;20053;-47
2024/01/29 14:20:02;;;;;;;21.23;8.83;;;;;;;;;;5001792;28;20014;-48